Latest Coastal Weather Observations for Whyalla

IDS60701

Issued at 8:35 pm CST Wednesday 30 July 2014 (issued every 10 minutes, with the page automatically refreshed every 10 minutes)

About coastal observations | Map of coastal stations | Coastal observations for SA | Marine services | Other Formats
Station Details ID: 018120 Name: WHYALLA AERO Lat: -33.05 Lon: 137.52 Height: 6.5 m
Data from the previous 72 hours. | See also: Recent months at Whyalla
Date/Time
CST
Temp

°C
Wind Pressure Rain
since 9am
mm
Weather Cloud Vis
km
Sea
Height
m
Swell
Dir
 
Speed
knots
Gust
knots
hPa Trend Height
m
Period
s
Dir
30/08:30pm 12.7 NNW 7 9 1015.4 - 0.0 - - 10 - - - -
30/08:00pm 13.8 N 8 10 1015.4 - 0.0 - - 10 - - - -
30/07:30pm 14.2 N 7 8 1015.5 - 0.0 - - 10 - - - -
30/07:00pm 15.1 N 7 8 1015.5 - 0.0 - - 10 - - - -
30/06:30pm 16.1 NNW 8 10 1015.4 - 0.0 - - 10 - - - -
30/06:00pm 17.8 NNW 9 13 1015.4 - 0.0 - - 10 - - - -
30/05:30pm 19.3 NW 12 16 1015.3 - 0.0 - - 10 - - - -
30/05:00pm 20.2 NNW 16 22 1015.3 - 0.0 - - 10 - - - -
30/04:30pm 20.9 NW 14 19 1015.3 - 0.0 - - 10 - - - -
30/04:00pm 21.4 NW 14 20 1015.2 - 0.0 - - 10 - - - -
30/03:30pm 21.7 NW 15 21 1015.5 - 0.0 - - 10 - - - -
30/03:00pm 21.3 NNW 15 20 1015.9 - 0.0 - Mostly clear 10 - - - -
30/02:30pm 20.9 NW 13 17 1016.3 - 0.0 - Partly cloudy 10 - - - -
30/02:00pm 20.8 NW 14 19 1016.6 - 0.0 - - 10 - - - -
30/01:30pm 20.6 NW 11 15 1017.2 - 0.0 - Partly cloudy 10 - - - -
30/01:00pm 19.8 NNW 11 17 1017.9 - 0.0 - Partly cloudy 10 - - - -
30/12:30pm 19.3 NNW 12 18 1018.7 - 0.0 - Partly cloudy 10 - - - -
30/12:00pm 18.8 NW 10 14 1019.3 - 0.0 - - 10 - - - -
30/11:30am 18.7 NW 9 14 1019.8 - 0.0 - - 10 - - - -
30/11:00am 17.5 NW 10 16 1020.5 - 0.0 - - 10 - - - -
30/10:30am 16.4 NW 9 13 1020.9 - 0.0 - - 10 - - - -
30/10:00am 15.0 NNW 11 13 1021.2 - 0.0 - - 10 - - - -
30/09:30am 14.0 NW 8 11 1021.3 - 0.0 - - 10 - - - -
30/09:00am 11.9 NNW 10 11 1021.1 - 0.0 - - 10 - - - -
30/08:30am 9.9 NNW 8 9 1020.8 - 0.0 - - 10 - - - -
30/08:00am 7.7 NNW 6 10 1020.9 - 0.0 - - 10 - - - -
30/07:30am 5.4 NW 7 7 1020.9 - 0.0 - - 10 - - - -
30/07:00am 5.2 NW 5 6 1020.6 - 0.0 - - 10 - - - -
30/06:30am 5.4 NW 7 7 1020.3 - 0.0 - - 10 - - - -
30/06:00am 6.2 NW 7 8 1020.0 - 0.0 - - 10 - - - -
30/05:30am 7.4 NNW 8 9 1019.8 - 0.0 - - 10 - - - -
30/05:00am 7.9 NNW 8 8 1019.7 - 0.0 - - 10 - - - -
30/04:30am 7.9 NNW 7 9 1020.0 - 0.0 - - 10 - - - -
30/04:00am 7.8 NW 7 8 1020.0 - 0.0 - - 10 - - - -
30/03:30am 8.5 NNW 8 9 1020.0 - 0.0 - - 10 - - - -
30/03:00am 7.9 NNW 8 10 1020.4 - 0.0 - - 10 - - - -
30/02:30am 8.1 NW 7 9 1020.7 - 0.0 - - 10 - - - -
30/02:00am 9.4 NNW 7 9 1020.8 - 0.0 - - 10 - - - -
30/01:30am 10.2 NNW 9 10 1020.9 - 0.0 - - 10 - - - -
30/01:00am 9.6 NNW 8 9 1021.0 - 0.0 - - 10 - - - -
30/12:30am 9.1 NNW 7 8 1021.1 - 0.0 - - 10 - - - -
30/12:00am 9.6 NNW 8 8 1021.2 - 0.0 - - 10 - - - -
 
Date/Time
CST
Temp

°C
Wind Pressure Rain
since 9am
mm
Weather Cloud Vis
km
Sea
Height
m
Swell
Dir
 
Speed
knots
Gust
knots
hPa Trend Height
m
Period
s
Dir
29/11:30pm 9.9 NNW 7 8 1021.2 - 0.0 - - 10 - - - -
29/11:00pm 11.0 N 6 7 1021.3 - 0.0 - - 10 - - - -
29/10:30pm 13.1 N 6 8 1021.2 - 0.0 - - 10 - - - -
29/10:00pm 13.0 NW 6 9 1021.2 - 0.0 - - 10 - - - -
29/09:30pm 11.4 NW 5 6 1021.0 - 0.0 - - 10 - - - -
29/09:00pm 10.5 NNW 4 5 1020.8 - 0.0 - - 10 - - - -
29/08:30pm 12.1 W 3 3 1020.7 - 0.0 - - 10 - - - -
29/08:00pm 13.2 NW 5 6 1020.2 - 0.0 - - 10 - - - -
29/07:30pm 13.2 NW 6 7 1019.7 - 0.0 - - 10 - - - -
29/07:00pm 15.4 W 5 6 1019.6 - 0.0 - - 10 - - - -
29/06:30pm 16.7 W 6 7 1019.2 - 0.0 - - 10 - - - -
29/06:00pm 18.1 W 7 11 1018.8 - 0.0 - - 10 - - - -
29/05:30pm 19.5 W 10 14 1018.5 - 0.0 - - 10 - - - -
29/05:00pm 20.5 W 14 19 1018.2 - 0.0 - - 10 - - - -
29/04:30pm 21.1 W 14 19 1017.9 - 0.0 - - 10 - - - -
29/04:00pm 21.5 W 14 20 1017.7 - 0.0 - - 10 - - - -
29/03:30pm 21.4 WNW 15 21 1017.8 - 0.0 - - 10 - - - -
29/03:00pm 21.4 WNW 16 21 1017.6 - 0.0 - - 10 - - - -
29/02:30pm 21.3 WNW 16 21 1017.8 - 0.0 - - 10 - - - -
29/02:00pm 20.9 WNW 15 20 1018.0 - 0.0 - - 10 - - - -
29/01:30pm 20.7 W 16 20 1018.3 - 0.0 - - 10 - - - -
29/01:00pm 20.0 W 16 23 1018.8 - 0.0 - Partly cloudy 10 - - - -
29/12:30pm 19.6 W 16 22 1019.1 - 0.0 - Partly cloudy 10 - - - -
29/12:00pm 20.2 W 15 20 1019.5 - 0.0 - Mostly clear 10 - - - -
29/11:30am 19.2 W 14 20 1019.8 - 0.0 - - 10 - - - -
29/11:00am 18.4 W 14 19 1020.2 - 0.0 - - 10 - - - -
29/10:30am 17.7 WNW 10 15 1020.1 - 0.0 - - 10 - - - -
29/10:00am 15.9 WNW 11 14 1019.9 - 0.0 - - 10 - - - -
29/09:30am 14.4 WNW 11 14 1019.7 - 0.0 - - 10 - - - -
29/09:00am 13.1 NW 11 15 1019.8 - 0.0 - - 10 - - - -
29/08:30am 11.6 NW 7 12 1019.7 - 0.0 - - 10 - - - -
29/08:00am 8.9 N 4 5 1019.4 - 0.0 - - 10 - - - -
29/07:30am 7.6 NNW 8 9 1019.1 - 0.0 - - 10 - - - -
29/07:00am 7.6 N 6 7 1019.2 - 0.0 - - 10 - - - -
29/06:30am 5.8 NE 3 5 1019.4 - 0.0 - - 10 - - - -
29/06:00am 6.6 NW 6 7 1019.1 - 0.0 - - 10 - - - -
29/05:30am 6.5 NNW 8 9 1018.4 - 0.0 - - 10 - - - -
29/05:00am 7.5 NW 11 12 1018.3 - 0.0 - - 10 - - - -
29/04:30am 6.9 NW 9 10 1018.1 - 0.0 - - 10 - - - -
29/04:00am 8.3 NNW 9 10 1018.3 - 0.0 - - 10 - - - -
29/03:30am 6.9 NNW 8 9 1018.2 - 0.0 - - 10 - - - -
29/03:00am 8.3 NNW 8 10 1018.4 - 0.0 - - 10 - - - -
29/02:30am 8.1 NW 7 9 1018.5 - 0.0 - - 10 - - - -
29/02:00am 9.7 NNW 8 9 1018.0 - 0.0 - - 10 - - - -
29/01:30am 9.9 NNW 8 10 1018.2 - 0.0 - - 10 - - - -
29/01:00am 9.8 N 8 9 1018.5 - 0.0 - - 10 - - - -
29/12:30am 9.8 NNW 6 6 1018.8 - 0.0 - - 10 - - - -
29/12:00am 10.6 NNW 7 8 1018.9 - 0.0 - Mostly cloudy 10 - - - -
 
Date/Time
CST
Temp

°C
Wind Pressure Rain
since 9am
mm
Weather Cloud Vis
km
Sea
Height
m
Swell
Dir
 
Speed
knots
Gust
knots
hPa Trend Height
m
Period
s
Dir
28/11:30pm 10.1 NNW 5 5 1018.8 - 0.0 - - 10 - - - -
28/11:00pm 10.7 N 5 6 1018.9 - 0.0 - - 10 - - - -
28/10:30pm 10.8 N 6 7 1018.9 - 0.0 - - 10 - - - -
28/10:00pm 11.0 WNW 5 6 1019.0 - 0.0 - - 10 - - - -
28/09:30pm 11.3 NW 6 7 1018.8 - 0.0 - - 10 - - - -
28/09:00pm 11.8 WNW 6 7 1018.8 - 0.0 - Partly cloudy 10 - - - -
28/08:30pm 12.2 WNW 5 6 1018.6 - 0.0 - - 10 - - - -
28/08:00pm 12.9 W 5 6 1018.4 - 0.0 - - 10 - - - -
28/07:30pm 13.1 SW 4 5 1018.0 - 0.0 - - 10 - - - -
28/07:00pm 13.3 SW 3 4 1017.8 - 0.0 - - 10 - - - -
28/06:30pm 14.1 SSW 1 4 1017.5 - 0.0 - Partly cloudy 10 - - - -
28/06:00pm 14.9 CALM 0 0 1017.1 - 0.0 - Cloudy 10 - - - -
28/05:30pm 15.5 S 4 6 1017.0 - 0.0 - Partly cloudy 10 - - - -
28/05:00pm 15.9 SE 3 5 1016.8 - 0.0 - - 10 - - - -
28/04:30pm 16.3 SSE 6 8 1016.6 - 0.0 - - 10 - - - -
28/04:00pm 16.7 SSE 7 11 1016.7 - 0.0 - Partly cloudy 10 - - - -
28/03:30pm 16.8 S 10 15 1016.6 - 0.0 - Partly cloudy 10 - - - -
28/03:00pm 18.8 SE 6 8 1016.1 - 0.0 - Mostly cloudy 10 - - - -
28/02:30pm 19.4 SSE 8 11 1016.1 - 0.0 - Partly cloudy 10 - - - -
28/02:00pm 22.5 NW 9 13 1016.2 - 0.0 - - 10 - - - -
28/01:30pm 22.2 NW 10 13 1016.6 - 0.0 - - 10 - - - -
28/01:00pm 22.0 NW 9 15 1017.2 - 0.0 - - 10 - - - -
28/12:30pm 20.6 NW 7 11 1017.7 - 0.0 - Partly cloudy 10 - - - -
28/12:00pm 18.7 NNW 7 11 1018.4 - 0.0 - Cloudy 10 - - - -
28/11:30am 17.4 NW 8 11 1019.1 - 0.0 - Cloudy 10 - - - -
28/11:00am 17.5 NNW 8 11 1019.2 - 0.0 - Cloudy 10 - - - -
28/10:30am 17.1 NW 8 10 1019.5 - 0.0 - Partly cloudy 10 - - - -
28/10:00am 16.6 NNW 9 12 1019.5 - 0.0 - Partly cloudy 10 - - - -
28/09:30am 15.4 NNW 10 13 1019.6 - 0.0 - Partly cloudy 10 - - - -
28/09:00am 13.9 NNW 9 12 1019.6 - 0.0 - Mostly cloudy 10 - - - -
28/08:30am 12.7 NNW 7 9 1019.6 - 0.0 - Cloudy 10 - - - -
28/08:00am 12.0 NNW 6 7 1019.5 - 0.0 - Cloudy 10 - - - -
28/07:30am 11.4 NW 9 12 1019.1 - 0.0 - Cloudy 10 - - - -
28/07:00am 11.5 NNW 11 14 1018.7 - 0.0 - Cloudy 10 - - - -
28/06:30am 11.0 NW 8 11 1018.7 - 0.0 - - 10 - - - -
28/06:00am 10.9 NNW 9 11 1018.5 - 0.0 - Mostly clear 10 - - - -
28/05:30am 11.9 NNW 10 12 1018.4 - 0.0 - Cloudy 10 - - - -
28/05:00am 11.7 NNW 9 11 1018.2 - 0.0 - Cloudy 10 - - - -
28/04:30am 11.8 NNW 9 12 1018.3 - 0.0 - Partly cloudy 10 - - - -
28/04:00am 11.7 N 12 15 1018.3 - 0.0 - - 10 - - - -
28/03:30am 11.2 NNW 10 12 1018.5 - 0.0 - - 10 - - - -
28/03:00am 10.5 N 9 11 1018.6 - 0.0 - - 10 - - - -
28/02:30am 10.9 NNW 9 11 1018.9 - 0.0 - - 10 - - - -
28/02:00am 10.5 NNW 9 12 1018.8 - 0.0 - - 10 - - - -
28/01:30am 10.1 NW 8 9 1018.8 - 0.0 - - 10 - - - -
28/01:00am 12.8 NNW 8 9 1018.9 - 0.0 - - 10 - - - -
28/12:30am 13.0 N 10 13 1019.2 - 0.0 - - 10 - - - -
28/12:00am 11.9 N 11 12 1019.4 - 0.0 - - 10 - - - -
 
Date/Time
CST
Temp

°C
Wind Pressure Rain
since 9am
mm
Weather Cloud Vis
km
Sea
Height
m
Swell
Dir
 
Speed
knots
Gust
knots
hPa Trend Height
m
Period
s
Dir
27/11:30pm 9.6 N 9 11 1019.8 - 0.0 - - 10 - - - -
27/11:00pm 10.3 W 11 15 1020.1 - 0.0 - - 10 - - - -
27/10:30pm 9.0 NW 7 8 1019.9 - 0.0 - - 10 - - - -
27/10:00pm 9.4 NNW 5 6 1019.9 - 0.0 - - 10 - - - -
27/09:30pm 10.3 WNW 6 7 1020.1 - 0.0 - - 10 - - - -
27/09:00pm 10.5 N 6 7 1020.0 - 0.0 - - 10 - - - -

Other Formats:

Comma delimited format used in spreadsheet applications
http://www.bom.gov.au/fwo/IDS60701/IDS60701.95664.axf

JavaScript Object Notation format (JSON) in row-major order
http://www.bom.gov.au/fwo/IDS60701/IDS60701.95664.json